This is the latest recevied weather packets stored in our database for station/object SQ9RHX-11. If no packets are shown the sender has not sent any weather packets the latest 10 day(s).
| Time | Temp. | Humidity | Pressure | Rain* | Wind** | Luminosity | Snow |
|---|---|---|---|---|---|---|---|
| 1777914077 | 26.11° C | 33% | 1011.3 hPa | - | - | - | - |
| 1777912277 | 26.67° C | 32% | 1011.2 hPa | - | - | - | - |
| 1777910477 | 28.33° C | 32% | 1011.3 hPa | - | - | - | - |
| 1777908677 | 27.78° C | 32% | 1011.4 hPa | - | - | - | - |
| 1777906878 | 28.89° C | 29% | 1011.4 hPa | - | - | - | - |
| 1777905078 | 28.89° C | 30% | 1011.7 hPa | - | - | - | - |
| 1777903278 | 29.44° C | 29% | 1011.9 hPa | - | - | - | - |
| 1777901479 | 31.11° C | 27% | 1012 hPa | - | - | - | - |
| 1777899679 | 30° C | 28% | 1012.3 hPa | - | - | - | - |
| 1777897879 | 30.56° C | 28% | 1012.5 hPa | - | - | - | - |
| 1777896080 | 30.56° C | 28% | 1012.7 hPa | - | - | - | - |
| 1777894279 | 29.44° C | 29% | 1012.9 hPa | - | - | - | - |
| 1777892480 | 28.33° C | 31% | 1013.2 hPa | - | - | - | - |
| 1777890681 | 27.78° C | 31% | 1013.5 hPa | - | - | - | - |
| 1777888879 | 25.56° C | 32% | 1013.8 hPa | - | - | - | - |
| 1777887080 | 26.67° C | 31% | 1013.9 hPa | - | - | - | - |
| 1777885280 | 26.11° C | 33% | 1014 hPa | - | - | - | - |
| 1777883480 | 23.89° C | 37% | 1014.1 hPa | - | - | - | - |
| 1777881680 | 22.22° C | 38% | 1014.3 hPa | - | - | - | - |
| 1777879880 | 22.78° C | 39% | 1014.3 hPa | - | - | - | - |
| 1777878079 | 20.56° C | 43% | 1014.3 hPa | - | - | - | - |
| 1777876280 | 18.89° C | 43% | 1014.2 hPa | - | - | - | - |
| 1777874480 | 18.33° C | 47% | 1014.2 hPa | - | - | - | - |
| 1777872679 | 14.44° C | 55% | 1014.1 hPa | - | - | - | - |
| 1777870878 | 12.78° C | 56% | 1014 hPa | - | - | - | - |
* Rain since midnight (hover to see other rain measurements)
** Current wind speed in m/s (hover to see current wind gust speed)